createdAt,value
2023-04-23T00:00:01.763Z,3.19
2023-04-23T00:02:35.638Z,3.53
2023-04-23T00:05:08.502Z,3.26
2023-04-23T00:07:42.124Z,3.32
2023-04-23T00:10:14.063Z,3.49
2023-04-23T00:12:46.158Z,3.22
2023-04-23T00:15:18.083Z,3.31
2023-04-23T00:17:49.808Z,3.49
2023-04-23T00:20:21.652Z,3.30
2023-04-23T00:22:53.369Z,3.28
2023-04-23T00:25:25.052Z,3.47
2023-04-23T00:27:56.744Z,3.29
2023-04-23T00:30:28.821Z,3.22
2023-04-23T00:33:00.523Z,3.30
2023-04-23T00:35:32.300Z,3.16
2023-04-23T00:38:03.991Z,3.44
2023-04-23T00:40:36.106Z,3.26
2023-04-23T00:43:07.813Z,3.26
2023-04-23T00:45:40.115Z,3.53
2023-04-23T00:48:12.328Z,3.17
2023-04-23T00:50:44.055Z,3.20
2023-04-23T00:53:15.737Z,3.65
2023-04-23T00:55:47.568Z,3.78
2023-04-23T00:58:19.666Z,3.54
2023-04-23T01:00:52.568Z,3.70
2023-04-23T01:03:27.030Z,3.73
2023-04-23T01:05:59.672Z,3.94
2023-04-23T01:08:32.401Z,3.88
2023-04-23T01:11:04.526Z,3.79
2023-04-23T01:13:36.552Z,4.08
2023-04-23T01:16:08.795Z,4.03
2023-04-23T01:18:40.644Z,3.75
2023-04-23T01:21:14.979Z,3.68
2023-04-23T01:23:46.795Z,3.81
2023-04-23T01:26:19.002Z,3.46
2023-04-23T01:28:52.536Z,3.44
2023-04-23T01:31:25.122Z,3.42
2023-04-23T01:33:58.891Z,3.26
2023-04-23T01:36:31.516Z,3.53
2023-04-23T01:39:03.476Z,3.49
2023-04-23T01:41:37.032Z,3.65
2023-04-23T01:44:08.923Z,4.08
2023-04-23T01:46:42.460Z,3.82
2023-04-23T01:49:15.312Z,3.99
2023-04-23T01:51:47.116Z,3.90
2023-04-23T01:54:18.983Z,3.94
2023-04-23T01:56:50.651Z,3.97
2023-04-23T01:59:23.276Z,3.71
2023-04-23T02:01:55.074Z,4.04
2023-04-23T02:04:29.648Z,3.65
2023-04-23T02:07:01.932Z,3.96
2023-04-23T02:09:33.717Z,3.80
2023-04-23T02:12:07.157Z,3.63
2023-04-23T02:14:40.391Z,3.72
2023-04-23T02:17:15.197Z,4.09
2023-04-23T02:19:47.605Z,4.15
2023-04-23T02:22:23.054Z,4.50
2023-04-23T02:24:55.413Z,4.69
2023-04-23T02:27:28.008Z,4.32
2023-04-23T02:30:00.419Z,4.10
2023-04-23T02:32:33.360Z,3.89
2023-04-23T02:35:07.001Z,3.88
2023-04-23T02:37:41.150Z,3.46
2023-04-23T02:40:12.948Z,3.66
2023-04-23T02:42:44.729Z,3.71
2023-04-23T02:45:16.569Z,3.45
2023-04-23T02:47:48.364Z,3.58
2023-04-23T02:50:20.118Z,3.42
2023-04-23T02:52:51.944Z,3.76
2023-04-23T02:55:23.654Z,3.41
2023-04-23T02:57:55.662Z,3.67
2023-04-23T03:00:28.534Z,3.53
2023-04-23T03:03:00.609Z,3.60
2023-04-23T03:05:32.440Z,3.77
2023-04-23T03:08:04.129Z,3.66
2023-04-23T03:10:35.849Z,3.38
2023-04-23T03:13:08.003Z,3.63
2023-04-23T03:15:40.479Z,3.51
2023-04-23T03:18:12.245Z,3.67
2023-04-23T03:20:44.417Z,3.63
2023-04-23T03:23:16.387Z,3.32
2023-04-23T03:25:48.766Z,3.38
2023-04-23T03:28:20.634Z,3.48
2023-04-23T03:30:52.571Z,3.42
2023-04-23T03:33:24.992Z,3.45
2023-04-23T03:35:56.733Z,3.65
2023-04-23T03:38:33.529Z,3.50
2023-04-23T03:41:07.407Z,3.37
2023-04-23T03:43:40.014Z,3.71
2023-04-23T03:46:24.885Z,3.54
2023-04-23T03:48:57.487Z,3.20
2023-04-23T03:51:32.296Z,3.41
2023-04-23T03:54:04.518Z,3.58
2023-04-23T03:56:48.518Z,3.58
2023-04-23T03:59:30.131Z,3.57
2023-04-23T04:02:04.850Z,3.97
2023-04-23T04:04:37.138Z,3.88
2023-04-23T04:07:09.238Z,4.13
2023-04-23T04:09:41.430Z,4.07
2023-04-23T04:12:13.345Z,3.94
2023-04-23T04:14:48.250Z,3.76
2023-04-23T04:17:20.083Z,3.61
2023-04-23T04:19:52.161Z,3.81
2023-04-23T04:22:24.383Z,4.10
2023-04-23T04:24:56.591Z,4.04
2023-04-23T04:27:28.702Z,4.06
2023-04-23T04:30:01.932Z,4.15
2023-04-23T04:32:33.865Z,4.57
2023-04-23T04:35:06.627Z,4.49
2023-04-23T04:37:38.578Z,4.59
2023-04-23T04:40:11.050Z,4.49
2023-04-23T04:42:42.895Z,4.35
2023-04-23T04:45:14.901Z,4.44
2023-04-23T04:47:46.988Z,4.46
2023-04-23T04:50:19.200Z,4.54
2023-04-23T04:52:51.468Z,4.44
2023-04-23T04:55:23.466Z,4.23
2023-04-23T04:57:55.682Z,4.33
2023-04-23T05:00:30.107Z,4.21
2023-04-23T05:03:03.677Z,4.32
2023-04-23T05:05:35.984Z,4.56
2023-04-23T05:08:07.727Z,4.08
2023-04-23T05:10:39.532Z,4.18
2023-04-23T05:13:11.157Z,3.83
2023-04-23T05:15:43.516Z,4.25
2023-04-23T05:18:15.363Z,4.18
2023-04-23T05:20:47.437Z,3.91
2023-04-23T05:23:19.202Z,4.22
2023-04-23T05:25:51.410Z,4.08
2023-04-23T05:28:23.588Z,4.01
2023-04-23T05:30:56.242Z,4.07
2023-04-23T05:33:33.568Z,3.92
2023-04-23T05:36:11.563Z,3.99
2023-04-23T05:38:43.357Z,4.00
2023-04-23T05:41:15.479Z,3.89
2023-04-23T05:43:47.190Z,3.78
2023-04-23T05:46:19.003Z,4.04
2023-04-23T05:48:50.750Z,3.64
2023-04-23T05:51:22.657Z,3.85
2023-04-23T05:53:54.341Z,3.62
2023-04-23T05:56:26.455Z,3.56
2023-04-23T05:58:58.230Z,3.57
2023-04-23T06:01:30.257Z,3.33
2023-04-23T06:04:02.045Z,3.22
2023-04-23T06:06:34.039Z,3.31
2023-04-23T06:09:05.996Z,3.28
2023-04-23T06:11:37.912Z,3.24
2023-04-23T06:14:10.304Z,2.98
2023-04-23T06:48:15.300Z,3.64
2023-04-23T06:50:47.921Z,3.55
2023-04-23T06:53:19.740Z,3.52
2023-04-23T06:55:51.590Z,3.53
2023-04-23T06:58:23.653Z,3.75
2023-04-23T07:00:55.637Z,3.47
2023-04-23T07:03:27.973Z,3.57
2023-04-23T07:06:00.235Z,3.76
2023-04-23T07:08:32.489Z,3.55
2023-04-23T07:11:04.529Z,3.55
2023-04-23T07:13:36.889Z,3.57
2023-04-23T07:16:08.685Z,3.73
2023-04-23T07:18:40.969Z,3.71
2023-04-23T07:21:13.967Z,3.67
2023-04-23T07:23:45.651Z,4.01
2023-04-23T07:26:17.579Z,3.73
2023-04-23T07:28:50.746Z,3.86
2023-04-23T07:31:25.159Z,4.21
2023-04-23T07:33:56.970Z,3.82
2023-04-23T07:36:29.097Z,3.62
2023-04-23T07:39:01.025Z,3.64
2023-04-23T07:41:33.388Z,3.74
2023-04-23T07:44:05.245Z,3.62
2023-04-23T07:46:36.825Z,3.49
2023-04-23T07:49:08.577Z,3.55
2023-04-23T07:51:40.735Z,3.91
2023-04-23T07:54:12.399Z,3.34
2023-04-23T07:56:44.065Z,3.52
2023-04-23T07:59:15.930Z,3.65
2023-04-23T08:01:47.657Z,3.66
2023-04-23T08:04:19.646Z,3.20
2023-04-23T08:06:51.885Z,3.26
2023-04-23T08:09:23.709Z,3.03
2023-04-23T08:11:55.436Z,3.39
2023-04-23T08:14:27.160Z,3.13
2023-04-23T08:16:58.823Z,3.43
2023-04-23T08:19:30.597Z,3.12
2023-04-23T08:22:02.396Z,3.31
2023-04-23T08:24:34.397Z,3.12
2023-04-23T08:27:06.148Z,3.26
2023-04-23T08:29:38.450Z,3.34
2023-04-23T08:32:10.450Z,3.12
2023-04-23T08:34:42.331Z,3.27
2023-04-23T08:37:27.147Z,3.03
2023-04-23T08:40:02.734Z,3.14
2023-04-23T08:42:43.333Z,3.30
2023-04-23T08:45:15.487Z,3.29
2023-04-23T08:47:47.715Z,3.91
2023-04-23T08:50:19.623Z,3.43
2023-04-23T08:52:57.714Z,3.45
2023-04-23T08:55:30.061Z,3.39
2023-04-23T08:58:05.018Z,3.15
2023-04-23T09:00:38.361Z,3.44
2023-04-23T09:03:10.773Z,3.31
2023-04-23T09:05:44.080Z,3.56
2023-04-23T09:08:17.417Z,3.43
2023-04-23T09:10:52.112Z,3.36
2023-04-23T09:13:24.882Z,3.26
2023-04-23T09:15:56.683Z,3.64
2023-04-23T09:18:29.182Z,3.66
2023-04-23T09:21:05.000Z,3.85
2023-04-23T09:23:39.150Z,3.49
2023-04-23T09:26:20.497Z,3.76
2023-04-23T09:28:52.337Z,3.81
2023-04-23T09:31:24.386Z,3.48
2023-04-23T09:33:58.148Z,3.83
2023-04-23T09:36:31.806Z,3.60
2023-04-23T09:39:12.356Z,3.48
2023-04-23T09:41:44.954Z,3.45
2023-04-23T09:44:21.754Z,3.43
2023-04-23T09:46:53.553Z,3.63
2023-04-23T09:49:25.842Z,3.59
2023-04-23T09:52:06.610Z,3.40
2023-04-23T09:54:38.881Z,3.36
2023-04-23T09:57:11.895Z,3.58
2023-04-23T09:59:49.005Z,3.71
2023-04-23T10:02:28.548Z,3.74
2023-04-23T10:07:48.367Z,3.54
2023-04-23T10:10:21.038Z,3.62
2023-04-23T10:12:55.685Z,3.72
2023-04-23T10:15:28.165Z,3.46
2023-04-23T10:18:00.009Z,3.54
2023-04-23T10:20:34.695Z,3.83
2023-04-23T10:23:09.219Z,3.54
2023-04-23T10:25:43.188Z,3.25
2023-04-23T10:28:19.420Z,3.59
2023-04-23T10:30:51.278Z,3.31
2023-04-23T10:33:31.736Z,3.44
2023-04-23T10:36:06.061Z,3.42
2023-04-23T10:38:48.348Z,3.37
2023-04-23T10:41:41.305Z,3.48
2023-04-23T10:44:16.154Z,3.37
2023-04-23T10:46:54.598Z,3.65
2023-04-23T10:49:31.296Z,3.37
2023-04-23T10:52:20.802Z,3.48
2023-04-23T10:54:58.574Z,3.61
2023-04-23T10:57:30.180Z,3.29
2023-04-23T11:00:02.358Z,3.83
2023-04-23T11:02:44.080Z,3.69
2023-04-23T11:05:16.297Z,3.55
2023-04-23T11:08:18.887Z,3.75
2023-04-23T11:10:58.869Z,3.54
2023-04-23T11:13:31.021Z,3.45
2023-04-23T11:16:22.592Z,3.34
2023-04-23T11:18:59.813Z,3.22
2023-04-23T11:22:01.848Z,3.32
2023-04-23T11:24:39.533Z,2.98
2023-04-23T11:27:16.781Z,2.69
2023-04-23T11:29:48.560Z,2.43
2023-04-23T11:32:21.555Z,2.54
2023-04-23T11:34:53.906Z,2.50
2023-04-23T11:37:25.863Z,2.72
2023-04-23T11:39:57.810Z,2.47
2023-04-23T11:42:29.670Z,2.38
2023-04-23T11:45:01.322Z,2.45
2023-04-23T11:47:33.587Z,2.55
2023-04-23T11:50:05.966Z,2.67
2023-04-23T11:52:39.587Z,2.54
2023-04-23T11:55:12.140Z,2.39
2023-04-23T11:57:46.298Z,2.59
2023-04-23T12:00:26.430Z,2.26
2023-04-23T12:03:04.064Z,2.35
2023-04-23T12:05:40.759Z,2.17
2023-04-23T12:08:16.652Z,2.42
2023-04-23T12:11:00.153Z,2.35
2023-04-23T12:13:34.363Z,2.38
2023-04-23T12:16:07.623Z,2.32
2023-04-23T12:18:41.993Z,2.17
2023-04-23T12:21:14.716Z,2.53
2023-04-23T12:23:51.513Z,2.37
2023-04-23T12:26:26.031Z,2.40
2023-04-23T12:28:59.771Z,2.27
2023-04-23T12:31:32.553Z,2.61
2023-04-23T12:34:06.985Z,2.29
2023-04-23T12:36:39.235Z,2.52
2023-04-23T12:39:30.923Z,2.26
2023-04-23T12:42:07.838Z,2.16
2023-04-23T12:44:40.112Z,2.13
2023-04-23T12:47:11.736Z,2.28
2023-04-23T12:49:44.110Z,2.23
2023-04-23T12:52:16.503Z,2.33
2023-04-23T12:54:48.216Z,2.09
2023-04-23T12:57:21.128Z,2.26
2023-04-23T12:59:52.907Z,2.33
2023-04-23T13:02:26.072Z,2.31
2023-04-23T13:04:57.885Z,2.25
2023-04-23T13:07:29.687Z,2.38
2023-04-23T13:10:01.378Z,2.31
2023-04-23T13:12:33.125Z,2.31
2023-04-23T13:15:05.523Z,2.37
2023-04-23T13:17:37.350Z,2.35
2023-04-23T13:20:09.628Z,2.43
2023-04-23T13:22:41.320Z,2.09
2023-04-23T13:25:13.189Z,2.13
2023-04-23T13:27:45.047Z,2.19
2023-04-23T13:30:17.031Z,2.05
2023-04-23T13:32:48.736Z,2.41
2023-04-23T13:35:20.945Z,2.37
2023-04-23T13:37:52.998Z,2.13
2023-04-23T13:40:24.811Z,2.00
2023-04-23T13:42:56.536Z,2.10
2023-04-23T13:45:28.731Z,1.98
2023-04-23T13:48:00.524Z,1.98
2023-04-23T13:50:32.719Z,1.96
2023-04-23T13:53:04.463Z,1.90
2023-04-23T13:55:37.265Z,1.90
2023-04-23T13:58:10.054Z,1.90
2023-04-23T14:00:44.182Z,1.74
2023-04-23T14:03:19.027Z,1.89
2023-04-23T14:05:51.695Z,1.80
2023-04-23T14:08:23.884Z,1.86
2023-04-23T14:10:55.774Z,1.70
2023-04-23T14:13:28.164Z,1.57
2023-04-23T14:16:02.870Z,1.54
2023-04-23T14:18:35.732Z,1.72
2023-04-23T14:21:07.737Z,1.67
2023-04-23T14:23:49.659Z,1.68
2023-04-23T14:29:34.795Z,1.77
2023-04-23T14:32:08.117Z,1.40
2023-04-23T14:34:43.127Z,1.38
2023-04-23T14:37:15.149Z,1.50
2023-04-23T14:39:47.571Z,1.62
2023-04-23T14:42:19.908Z,1.74
2023-04-23T14:44:51.769Z,1.55
2023-04-23T14:47:24.110Z,1.65
2023-04-23T14:49:56.361Z,1.48
2023-04-23T14:52:29.378Z,1.62
2023-04-23T14:55:01.948Z,1.53
2023-04-23T14:57:33.913Z,1.46
2023-04-23T15:00:07.507Z,1.64
2023-04-23T15:02:43.625Z,1.42
2023-04-23T15:05:15.806Z,1.33
2023-04-23T15:07:47.972Z,1.45
2023-04-23T15:10:23.189Z,1.40
2023-04-23T15:13:02.768Z,1.33
2023-04-23T15:15:44.881Z,1.48
2023-04-23T15:18:19.460Z,1.37
2023-04-23T15:20:51.241Z,1.39
2023-04-23T15:23:22.992Z,1.15
2023-04-23T15:25:54.799Z,1.12
2023-04-23T15:28:26.682Z,1.00
2023-04-23T15:30:58.747Z,1.17
2023-04-23T15:33:33.261Z,1.09
2023-04-23T15:36:05.361Z,1.00
2023-04-23T15:38:37.519Z,1.00
2023-04-23T15:41:09.242Z,0.86
2023-04-23T15:43:41.073Z,0.61
2023-04-23T15:46:12.872Z,0.64
2023-04-23T15:48:44.869Z,0.71
2023-04-23T15:51:16.555Z,0.59
2023-04-23T15:53:48.309Z,0.58
2023-04-23T15:56:19.979Z,0.69
2023-04-23T15:58:52.080Z,0.73
2023-04-23T16:01:26.942Z,1.20
2023-04-23T16:06:33.874Z,0.96
2023-04-23T16:09:05.859Z,0.80
2023-04-23T16:11:38.752Z,0.86
2023-04-23T16:14:10.413Z,0.89
2023-04-23T16:16:42.238Z,0.97
2023-04-23T16:19:14.543Z,0.94
2023-04-23T16:21:46.522Z,1.14
2023-04-23T16:24:18.302Z,1.03
2023-04-23T16:26:50.101Z,1.29
2023-04-23T16:29:23.263Z,1.26
2023-04-23T16:31:55.086Z,1.22
2023-04-23T16:34:26.907Z,1.11
2023-04-23T16:36:58.666Z,1.13
2023-04-23T16:39:31.160Z,1.24
2023-04-23T16:42:03.014Z,1.23
2023-04-23T16:44:35.605Z,1.06
2023-04-23T16:47:07.823Z,1.26
2023-04-23T16:49:40.964Z,1.36
2023-04-23T16:52:12.975Z,1.35
2023-04-23T16:54:45.176Z,1.61
2023-04-23T16:57:18.249Z,1.50
2023-04-23T16:59:51.523Z,1.43
2023-04-23T17:02:24.702Z,1.34
2023-04-23T17:04:57.132Z,1.13
2023-04-23T17:07:29.411Z,1.38
2023-04-23T17:10:02.087Z,1.34
2023-04-23T17:12:34.044Z,1.13
2023-04-23T17:15:06.756Z,1.02
2023-04-23T17:17:39.248Z,0.99
2023-04-23T17:20:11.480Z,1.14
2023-04-23T17:22:43.467Z,1.57
2023-04-23T17:25:15.568Z,0.89
2023-04-23T17:27:47.464Z,0.97
2023-04-23T17:30:20.850Z,1.07
2023-04-23T17:32:52.928Z,0.95
2023-04-23T17:35:25.487Z,1.00
2023-04-23T17:37:57.776Z,0.96
2023-04-23T17:40:30.248Z,1.09
2023-04-23T17:43:02.820Z,1.12
2023-04-23T17:45:34.855Z,1.11
2023-04-23T17:48:06.790Z,1.03
2023-04-23T17:50:39.134Z,1.04
2023-04-23T17:53:10.973Z,0.97
2023-04-23T17:55:42.859Z,1.11
2023-04-23T17:58:14.740Z,1.05
2023-04-23T18:00:46.649Z,1.19
2023-04-23T18:03:18.804Z,1.32
2023-04-23T18:05:50.799Z,1.41
2023-04-23T18:08:23.018Z,1.43
2023-04-23T18:10:54.796Z,1.43
2023-04-23T18:13:27.263Z,1.42
2023-04-23T18:15:59.244Z,1.34
2023-04-23T18:18:31.609Z,1.42
2023-04-23T18:21:04.400Z,1.44
2023-04-23T18:23:36.793Z,1.31
2023-04-23T18:26:08.572Z,1.26
2023-04-23T18:28:41.016Z,1.27
2023-04-23T18:31:13.029Z,1.36
2023-04-23T18:33:59.341Z,1.48
2023-04-23T18:36:37.985Z,1.41
2023-04-23T18:39:10.003Z,1.33
2023-04-23T18:41:41.741Z,1.38
2023-04-23T18:44:13.854Z,1.44
2023-04-23T18:46:46.027Z,1.28
2023-04-23T18:49:30.353Z,1.32
2023-04-23T18:52:02.179Z,1.29
2023-04-23T18:54:34.115Z,1.30
2023-04-23T18:57:05.876Z,1.08
2023-04-23T18:59:37.817Z,1.14
2023-04-23T19:04:43.822Z,1.15
2023-04-23T19:07:15.546Z,1.19
2023-04-23T19:09:47.538Z,1.61
2023-04-23T19:12:22.742Z,1.43
2023-04-23T19:14:55.186Z,1.19
2023-04-23T19:17:27.225Z,1.42
2023-04-23T19:19:59.630Z,1.20
2023-04-23T19:22:32.495Z,1.31
2023-04-23T19:25:04.860Z,1.29
2023-04-23T19:27:36.941Z,1.26
2023-04-23T19:30:09.480Z,1.15
2023-04-23T19:32:42.322Z,1.51
2023-04-23T19:35:14.382Z,1.27
2023-04-23T19:37:46.545Z,1.17
2023-04-23T19:40:18.536Z,1.30
2023-04-23T19:42:52.194Z,1.22
2023-04-23T19:45:24.148Z,1.30
2023-04-23T19:47:57.167Z,1.44
2023-04-23T19:50:29.435Z,1.14
2023-04-23T19:53:04.447Z,1.14
2023-04-23T19:55:36.516Z,1.07
2023-04-23T19:58:11.060Z,1.10
2023-04-23T20:00:43.216Z,1.17
2023-04-23T20:03:15.395Z,1.07
2023-04-23T20:05:47.235Z,1.43
2023-04-23T20:08:19.977Z,1.04
2023-04-23T20:10:53.529Z,1.12
2023-04-23T20:13:25.483Z,1.16
2023-04-23T20:15:57.844Z,1.21
2023-04-23T20:18:29.558Z,1.26
2023-04-23T20:21:01.377Z,1.16
2023-04-23T20:23:33.122Z,1.95
2023-04-23T20:26:04.806Z,1.76
2023-04-23T20:28:36.559Z,1.15
2023-04-23T20:31:08.252Z,1.26
2023-04-23T20:33:44.088Z,1.22
2023-04-23T20:36:15.865Z,1.24
2023-04-23T20:38:47.647Z,1.11
2023-04-23T20:41:19.550Z,1.06
2023-04-23T20:43:51.257Z,0.96
2023-04-23T20:46:23.846Z,1.16
2023-04-23T20:48:56.326Z,0.96
2023-04-23T20:51:28.581Z,1.10
2023-04-23T20:54:00.383Z,1.09
2023-04-23T20:56:32.193Z,0.99
2023-04-23T20:59:04.934Z,0.87
2023-04-23T21:01:37.529Z,0.84
2023-04-23T21:04:09.568Z,1.08
2023-04-23T21:06:42.117Z,1.29
2023-04-23T21:09:13.955Z,1.00
2023-04-23T21:11:45.741Z,0.76
2023-04-23T21:14:17.521Z,0.75
2023-04-23T21:16:49.139Z,0.78
2023-04-23T21:19:21.237Z,0.67
2023-04-23T21:21:52.990Z,0.61
2023-04-23T21:24:24.695Z,0.60
2023-04-23T21:26:56.428Z,0.68
2023-04-23T21:29:28.818Z,0.57
2023-04-23T21:32:00.695Z,0.53
2023-04-23T21:34:32.594Z,0.56
2023-04-23T21:37:04.626Z,0.47
2023-04-23T21:39:36.726Z,0.31
2023-04-23T21:42:08.604Z,0.32
2023-04-23T21:44:41.322Z,0.52
2023-04-23T21:47:13.348Z,0.77
2023-04-23T21:49:45.157Z,0.56
2023-04-23T21:52:17.084Z,0.46
2023-04-23T21:54:49.643Z,0.34
2023-04-23T21:57:21.674Z,0.29
2023-04-23T21:59:54.032Z,0.29
2023-04-23T22:02:26.470Z,0.36
2023-04-23T22:04:59.654Z,0.36
2023-04-23T22:07:31.886Z,0.30
2023-04-23T22:10:04.625Z,0.27
2023-04-23T22:12:37.108Z,0.26
2023-04-23T22:15:12.686Z,0.21
2023-04-23T22:17:45.628Z,0.34
2023-04-23T22:20:19.003Z,0.19
2023-04-23T22:22:51.712Z,0.28
2023-04-23T22:25:25.101Z,0.32
2023-04-23T22:27:57.092Z,0.51
2023-04-23T22:30:30.065Z,0.58
2023-04-23T22:33:02.540Z,0.27
2023-04-23T22:35:36.149Z,0.28
2023-04-23T22:38:08.704Z,0.27
2023-04-23T22:40:41.861Z,0.31
2023-04-23T22:43:14.214Z,0.25
2023-04-23T22:45:46.120Z,0.28
2023-04-23T22:48:18.315Z,0.33
2023-04-23T22:50:50.033Z,0.22
2023-04-23T22:53:21.748Z,0.26
2023-04-23T22:55:53.399Z,0.30
2023-04-23T22:58:25.133Z,0.31
2023-04-23T23:00:56.914Z,0.28
2023-04-23T23:03:28.767Z,0.27
2023-04-23T23:06:00.514Z,0.28
2023-04-23T23:08:32.425Z,0.27
2023-04-23T23:11:04.269Z,0.37
2023-04-23T23:13:36.211Z,0.23
2023-04-23T23:16:08.058Z,0.23
2023-04-23T23:18:40.086Z,0.18
2023-04-23T23:21:12.343Z,0.23
2023-04-23T23:23:44.225Z,0.21
2023-04-23T23:26:16.088Z,0.27
2023-04-23T23:28:47.710Z,0.22
2023-04-23T23:31:20.503Z,0.23
2023-04-23T23:33:53.194Z,0.31
2023-04-23T23:36:25.673Z,0.30
2023-04-23T23:38:57.465Z,0.28
2023-04-23T23:41:29.476Z,0.17
2023-04-23T23:44:01.186Z,0.15
2023-04-23T23:46:33.083Z,0.30
2023-04-23T23:49:05.797Z,0.18
2023-04-23T23:51:38.068Z,0.34
2023-04-23T23:54:09.757Z,0.33
2023-04-23T23:56:41.534Z,0.39
2023-04-23T23:59:13.486Z,0.23
